createdAt,value
2023-02-27T00:00:35.869Z,4.03
2023-02-27T00:03:03.077Z,5.35
2023-02-27T00:05:30.233Z,5.30
2023-02-27T00:07:57.398Z,3.97
2023-02-27T00:10:24.585Z,5.03
2023-02-27T00:12:51.757Z,2.08
2023-02-27T00:15:19.622Z,3.05
2023-02-27T00:17:46.954Z,3.70
2023-02-27T00:20:14.780Z,2.17
2023-02-27T00:22:42.234Z,2.88
2023-02-27T00:25:09.624Z,2.15
2023-02-27T00:27:37.100Z,2.88
2023-02-27T00:30:07.718Z,3.00
2023-02-27T00:32:36.776Z,2.40
2023-02-27T00:35:07.506Z,4.18
2023-02-27T00:37:34.783Z,4.43
2023-02-27T00:40:02.036Z,3.35
2023-02-27T00:42:30.938Z,1.73
2023-02-27T00:44:58.209Z,3.13
2023-02-27T00:47:25.406Z,3.08
2023-02-27T00:49:52.550Z,1.80
2023-02-27T00:52:19.742Z,2.85
2023-02-27T00:54:46.875Z,5.90
2023-02-27T00:57:14.135Z,2.75
2023-02-27T00:59:41.455Z,3.60
2023-02-27T01:02:08.730Z,4.10
2023-02-27T01:04:35.879Z,3.95
2023-02-27T01:07:03.034Z,3.67
2023-02-27T01:09:30.179Z,1.33
2023-02-27T01:11:57.732Z,2.80
2023-02-27T01:14:25.001Z,7.13
2023-02-27T01:16:52.212Z,3.90
2023-02-27T01:19:19.707Z,4.13
2023-02-27T01:21:46.901Z,2.45
2023-02-27T01:24:14.162Z,2.85
2023-02-27T01:26:41.299Z,3.15
2023-02-27T01:29:08.484Z,4.53
2023-02-27T01:34:16.896Z,4.50
2023-02-27T01:36:44.071Z,2.55
2023-02-27T01:39:11.273Z,2.53
2023-02-27T01:41:38.454Z,3.97
2023-02-27T01:44:09.483Z,2.45
2023-02-27T01:46:36.720Z,3.08
2023-02-27T01:49:03.850Z,3.15
2023-02-27T01:51:32.880Z,2.35
2023-02-27T01:54:00.497Z,3.00
2023-02-27T01:56:31.068Z,3.03
2023-02-27T01:59:05.176Z,4.47
2023-02-27T02:01:33.009Z,2.42
2023-02-27T02:04:06.299Z,3.20
2023-02-27T02:06:34.378Z,3.25
2023-02-27T02:09:01.574Z,2.55
2023-02-27T02:11:29.005Z,3.45
2023-02-27T02:13:57.294Z,4.13
2023-02-27T02:16:35.241Z,3.60
2023-02-27T02:19:17.675Z,2.13
2023-02-27T02:21:59.849Z,2.28
2023-02-27T02:24:45.698Z,3.35
2023-02-27T02:27:32.181Z,2.20
2023-02-27T02:30:18.246Z,5.03
2023-02-27T02:32:51.007Z,4.00
2023-02-27T02:35:18.155Z,2.03
2023-02-27T02:37:50.156Z,3.28
2023-02-27T02:40:24.436Z,3.40
2023-02-27T02:43:09.709Z,2.05
2023-02-27T02:45:49.245Z,5.00
2023-02-27T02:48:21.228Z,4.00
2023-02-27T02:50:48.339Z,2.30
2023-02-27T02:53:18.355Z,4.30
2023-02-27T02:55:48.043Z,4.43
2023-02-27T02:58:15.234Z,3.47
2023-02-27T03:01:14.592Z,3.35
2023-02-27T03:03:52.472Z,3.50
2023-02-27T03:06:19.607Z,3.92
2023-02-27T03:08:56.616Z,2.40
2023-02-27T03:11:23.956Z,5.20
2023-02-27T03:13:55.645Z,4.80
2023-02-27T03:16:22.803Z,2.47
2023-02-27T03:18:54.114Z,2.60
2023-02-27T03:21:23.151Z,4.05
2023-02-27T03:23:50.295Z,2.65
2023-02-27T03:26:18.927Z,2.30
2023-02-27T03:28:51.819Z,2.50
2023-02-27T03:31:21.525Z,4.72
2023-02-27T03:33:52.987Z,3.83
2023-02-27T03:36:27.564Z,2.80
2023-02-27T03:39:00.891Z,4.00
2023-02-27T03:41:28.411Z,2.33
2023-02-27T03:44:14.430Z,4.65
2023-02-27T03:46:41.684Z,5.25
2023-02-27T03:49:08.892Z,4.07
2023-02-27T03:51:36.130Z,3.67
2023-02-27T03:54:09.749Z,4.97
2023-02-27T03:56:41.322Z,4.32
2023-02-27T03:59:08.480Z,2.53
2023-02-27T04:01:35.690Z,3.70
2023-02-27T04:04:10.538Z,7.60
2023-02-27T04:06:57.956Z,4.30
2023-02-27T04:09:25.118Z,3.90
2023-02-27T04:12:10.814Z,2.45
2023-02-27T04:14:44.589Z,8.00
2023-02-27T04:17:11.734Z,3.35
2023-02-27T04:19:39.074Z,3.28
2023-02-27T04:22:19.790Z,4.18
2023-02-27T04:24:53.116Z,3.80
2023-02-27T04:27:35.496Z,3.03
2023-02-27T04:30:02.612Z,3.20
2023-02-27T04:32:40.292Z,4.32
2023-02-27T04:35:26.042Z,3.47
2023-02-27T04:37:56.401Z,5.38
2023-02-27T04:40:31.603Z,4.80
2023-02-27T04:42:59.225Z,4.68
2023-02-27T04:45:26.858Z,2.92
2023-02-27T04:47:56.325Z,3.97
2023-02-27T04:50:25.409Z,6.05
2023-02-27T04:52:53.966Z,4.32
2023-02-27T04:55:22.577Z,3.77
2023-02-27T04:57:54.979Z,4.85
2023-02-27T05:00:22.823Z,5.18
2023-02-27T05:02:52.202Z,5.95
2023-02-27T05:05:23.918Z,8.68
2023-02-27T05:07:52.931Z,8.00
2023-02-27T05:10:27.113Z,9.52
2023-02-27T05:12:57.024Z,9.27
2023-02-27T05:15:53.672Z,9.40
2023-02-27T05:18:21.865Z,8.73
2023-02-27T05:20:54.389Z,6.43
2023-02-27T05:23:24.566Z,6.82
2023-02-27T05:26:18.000Z,7.13
2023-02-27T05:28:54.329Z,7.25
2023-02-27T05:31:30.541Z,7.30
2023-02-27T05:33:59.750Z,4.53
2023-02-27T05:36:37.797Z,5.63
2023-02-27T05:39:09.655Z,5.43
2023-02-27T05:41:38.141Z,5.50
2023-02-27T05:44:12.523Z,3.83
2023-02-27T05:46:40.757Z,5.32
2023-02-27T05:49:12.244Z,5.68
2023-02-27T05:51:39.472Z,3.33
2023-02-27T05:54:12.587Z,4.53
2023-02-27T05:56:39.744Z,5.75
2023-02-27T05:59:11.929Z,5.50
2023-02-27T06:01:39.323Z,4.63
2023-02-27T06:04:06.439Z,4.43
2023-02-27T06:06:33.698Z,5.43
2023-02-27T06:09:00.884Z,7.03
2023-02-27T06:11:28.560Z,6.88
2023-02-27T06:13:57.592Z,5.57
2023-02-27T06:16:24.830Z,6.90
2023-02-27T06:18:52.144Z,7.40
2023-02-27T06:21:19.338Z,6.15
2023-02-27T06:23:46.522Z,7.95
2023-02-27T06:26:14.355Z,11.43
2023-02-27T06:28:42.423Z,7.38
2023-02-27T06:31:09.613Z,8.20
2023-02-27T06:33:36.801Z,7.13
2023-02-27T06:36:04.076Z,14.52
2023-02-27T06:38:31.575Z,15.30
2023-02-27T06:40:59.050Z,13.38
2023-02-27T06:43:26.329Z,12.90
2023-02-27T06:45:56.392Z,20.13
2023-02-27T06:48:23.548Z,22.88
2023-02-27T06:50:54.104Z,24.57
2023-02-27T06:53:21.295Z,19.90
2023-02-27T06:55:49.346Z,21.25
2023-02-27T06:58:16.985Z,16.38
2023-02-27T07:00:44.288Z,13.65
2023-02-27T07:03:11.423Z,12.77
2023-02-27T07:05:38.559Z,13.00
2023-02-27T07:08:06.139Z,10.10
2023-02-27T07:10:33.288Z,10.68
2023-02-27T07:13:00.448Z,8.48
2023-02-27T07:15:27.713Z,9.25
2023-02-27T07:17:54.848Z,6.20
2023-02-27T07:20:22.025Z,7.88
2023-02-27T07:22:49.208Z,7.30
2023-02-27T07:25:16.456Z,8.30
2023-02-27T07:27:45.754Z,5.33
2023-02-27T07:30:13.241Z,5.07
2023-02-27T07:32:40.389Z,6.07
2023-02-27T07:35:08.277Z,6.53
2023-02-27T07:37:35.475Z,7.32
2023-02-27T07:40:03.026Z,3.80
2023-02-27T07:42:30.178Z,5.75
2023-02-27T07:44:57.345Z,7.32
2023-02-27T07:47:24.523Z,5.10
2023-02-27T07:49:51.709Z,5.97
2023-02-27T07:52:18.872Z,6.87
2023-02-27T07:54:46.041Z,5.07
2023-02-27T07:57:13.558Z,7.13
2023-02-27T07:59:40.754Z,8.13
2023-02-27T08:02:07.956Z,5.78
2023-02-27T08:04:35.813Z,7.70
2023-02-27T08:07:03.193Z,7.63
2023-02-27T08:09:30.836Z,6.88
2023-02-27T08:11:58.475Z,5.78
2023-02-27T08:14:25.705Z,7.22
2023-02-27T08:16:52.871Z,7.65
2023-02-27T08:19:20.148Z,4.80
2023-02-27T08:21:47.364Z,11.70
2023-02-27T08:24:14.545Z,8.45
2023-02-27T08:26:41.709Z,6.97
2023-02-27T08:29:08.915Z,5.35
2023-02-27T08:31:36.189Z,5.65
2023-02-27T08:34:10.422Z,5.05
2023-02-27T08:36:38.317Z,7.85
2023-02-27T08:39:05.967Z,6.28
2023-02-27T08:41:33.176Z,6.63
2023-02-27T08:44:00.340Z,6.95
2023-02-27T08:46:27.965Z,8.82
2023-02-27T08:48:55.481Z,6.57
2023-02-27T08:51:22.628Z,6.75
2023-02-27T08:53:50.177Z,4.57
2023-02-27T08:56:17.392Z,4.57
2023-02-27T08:58:44.696Z,4.35
2023-02-27T09:01:11.930Z,3.67
2023-02-27T09:03:39.101Z,4.70
2023-02-27T09:06:06.384Z,3.28
2023-02-27T09:08:33.781Z,3.53
2023-02-27T09:11:00.960Z,3.10
2023-02-27T09:13:28.858Z,5.13
2023-02-27T09:15:56.361Z,4.03
2023-02-27T09:18:23.584Z,5.20
2023-02-27T09:20:56.457Z,5.47
2023-02-27T09:23:23.629Z,3.53
2023-02-27T09:25:50.807Z,2.45
2023-02-27T09:28:18.008Z,3.45
2023-02-27T09:30:45.264Z,3.67
2023-02-27T09:33:12.590Z,3.15
2023-02-27T09:35:39.980Z,3.42
2023-02-27T09:38:07.225Z,3.00
2023-02-27T09:40:38.299Z,3.22
2023-02-27T09:43:09.053Z,4.55
2023-02-27T09:45:39.567Z,1.80
2023-02-27T09:48:09.074Z,1.63
2023-02-27T09:50:39.389Z,2.60
2023-02-27T09:53:06.944Z,2.65
2023-02-27T09:55:35.433Z,2.17
2023-02-27T09:58:07.885Z,1.50
2023-02-27T10:00:35.068Z,1.08
2023-02-27T10:03:05.113Z,1.92
2023-02-27T10:05:32.294Z,1.15
2023-02-27T10:08:18.711Z,2.13
2023-02-27T10:11:02.825Z,2.58
2023-02-27T10:13:48.951Z,1.67
2023-02-27T10:16:16.574Z,1.73
2023-02-27T10:18:46.935Z,2.72
2023-02-27T10:21:14.989Z,1.85
2023-02-27T10:23:43.150Z,2.35
2023-02-27T10:26:15.865Z,1.42
2023-02-27T10:28:42.992Z,1.67
2023-02-27T10:31:12.812Z,2.88
2023-02-27T10:33:40.365Z,1.65
2023-02-27T10:36:15.948Z,2.83
2023-02-27T10:38:55.872Z,1.40
2023-02-27T10:41:23.029Z,1.70
2023-02-27T10:43:50.791Z,2.00
2023-02-27T10:46:18.650Z,1.90
2023-02-27T10:48:46.231Z,0.93
2023-02-27T10:51:19.564Z,3.33
2023-02-27T10:53:46.731Z,2.00
2023-02-27T10:56:15.996Z,2.45
2023-02-27T10:58:43.140Z,2.00
2023-02-27T11:01:10.956Z,1.77
2023-02-27T11:03:41.169Z,2.63
2023-02-27T11:06:08.786Z,2.13
2023-02-27T11:08:36.034Z,3.42
2023-02-27T11:11:12.362Z,1.30
2023-02-27T11:13:40.473Z,1.92
2023-02-27T11:16:21.834Z,1.95
2023-02-27T11:18:49.479Z,2.90
2023-02-27T11:21:20.203Z,2.33
2023-02-27T11:23:51.126Z,1.88
2023-02-27T11:26:19.856Z,4.10
2023-02-27T11:28:47.030Z,3.00
2023-02-27T11:31:17.923Z,1.20
2023-02-27T11:33:55.947Z,2.33
2023-02-27T11:36:23.831Z,2.53
2023-02-27T11:38:52.807Z,1.00
2023-02-27T11:41:20.023Z,1.80
2023-02-27T11:43:48.129Z,0.70
2023-02-27T11:46:46.781Z,1.98
2023-02-27T11:49:07.656Z,0.82
2023-02-27T11:51:43.741Z,3.92
2023-02-27T11:54:16.720Z,1.88
2023-02-27T11:56:43.918Z,1.75
2023-02-27T11:59:11.040Z,1.98
2023-02-27T12:01:39.783Z,1.85
2023-02-27T12:04:11.161Z,1.30
2023-02-27T12:07:07.740Z,3.37
2023-02-27T12:09:34.906Z,2.93
2023-02-27T12:12:02.335Z,1.50
2023-02-27T12:14:31.704Z,3.00
2023-02-27T12:17:09.306Z,1.45
2023-02-27T12:19:41.152Z,1.13
2023-02-27T12:22:18.432Z,0.80
2023-02-27T12:24:48.133Z,1.50
2023-02-27T12:27:15.854Z,1.38
2023-02-27T12:29:44.718Z,2.80
2023-02-27T12:32:16.020Z,1.10
2023-02-27T12:34:44.194Z,1.42
2023-02-27T12:37:15.360Z,3.67
2023-02-27T12:39:43.275Z,3.22
2023-02-27T12:42:10.487Z,2.53
2023-02-27T12:44:44.070Z,31.17
2023-02-27T12:47:24.051Z,8.70
2023-02-27T12:49:54.350Z,3.10
2023-02-27T12:52:24.436Z,2.53
2023-02-27T12:54:56.965Z,8.30
2023-02-27T12:57:33.160Z,6.88
2023-02-27T13:00:09.260Z,8.20
2023-02-27T13:02:39.902Z,2.28
2023-02-27T13:05:14.254Z,0.88
2023-02-27T13:08:07.925Z,0.47
2023-02-27T13:10:45.584Z,1.23
2023-02-27T13:13:24.283Z,1.08
2023-02-27T13:16:14.751Z,2.30
2023-02-27T13:18:58.058Z,3.08
2023-02-27T13:21:25.982Z,1.30
2023-02-27T13:23:58.571Z,1.27
2023-02-27T13:26:27.499Z,0.98
2023-02-27T13:28:54.773Z,1.00
2023-02-27T13:31:28.446Z,9.07
2023-02-27T13:34:14.165Z,5.13
2023-02-27T13:36:42.317Z,12.68
2023-02-27T13:39:29.782Z,11.05
2023-02-27T13:41:56.948Z,11.40
2023-02-27T13:44:26.296Z,2.97
2023-02-27T13:46:53.711Z,0.88
2023-02-27T13:49:29.517Z,1.97
2023-02-27T13:51:59.532Z,1.10
2023-02-27T13:54:27.893Z,1.73
2023-02-27T13:56:55.042Z,1.37
2023-02-27T13:59:25.277Z,2.78
2023-02-27T14:01:53.283Z,2.80
2023-02-27T14:04:20.623Z,1.88
2023-02-27T14:06:47.813Z,3.93
2023-02-27T14:09:17.271Z,3.53
2023-02-27T14:11:51.937Z,5.13
2023-02-27T14:14:38.115Z,3.85
2023-02-27T14:17:05.314Z,2.57
2023-02-27T14:19:35.300Z,1.92
2023-02-27T14:22:03.290Z,1.67
2023-02-27T14:24:49.737Z,1.83
2023-02-27T14:27:24.796Z,1.98
2023-02-27T14:29:52.529Z,1.30
2023-02-27T14:32:23.458Z,1.63
2023-02-27T14:34:50.825Z,1.63
2023-02-27T14:37:21.569Z,1.50
2023-02-27T14:39:49.612Z,1.13
2023-02-27T14:42:27.194Z,1.40
2023-02-27T14:44:54.471Z,9.07
2023-02-27T14:47:27.470Z,18.17
2023-02-27T14:49:56.191Z,8.40
2023-02-27T14:52:24.273Z,8.13
2023-02-27T14:54:51.541Z,3.88
2023-02-27T14:57:20.382Z,2.97
2023-02-27T14:59:48.259Z,5.57
2023-02-27T15:02:31.409Z,6.35
2023-02-27T15:05:01.660Z,1.50
2023-02-27T15:07:32.746Z,4.50
2023-02-27T15:10:02.612Z,4.87
2023-02-27T15:12:31.007Z,6.85
2023-02-27T15:15:00.403Z,5.53
2023-02-27T15:17:47.872Z,3.28
2023-02-27T15:20:24.598Z,3.38
2023-02-27T15:22:51.923Z,2.20
2023-02-27T15:25:54.748Z,1.73
2023-02-27T15:28:25.514Z,1.50
2023-02-27T15:30:53.340Z,2.33
2023-02-27T15:33:22.453Z,3.75
2023-02-27T15:35:49.708Z,1.80
2023-02-27T15:38:27.029Z,1.17
2023-02-27T15:40:54.209Z,13.45
2023-02-27T15:43:21.528Z,18.60
2023-02-27T18:10:32.135Z,8.73
2023-02-27T18:12:58.947Z,7.30
2023-02-27T18:15:25.782Z,7.77
2023-02-27T18:17:52.636Z,7.72
2023-02-27T18:20:20.222Z,9.25
2023-02-27T18:22:46.978Z,7.82
2023-02-27T18:25:15.364Z,7.27
2023-02-27T18:27:43.209Z,9.45
2023-02-27T18:30:10.717Z,7.88
2023-02-27T18:32:37.492Z,9.07
2023-02-27T18:35:04.599Z,11.77
2023-02-27T18:37:31.476Z,11.20
2023-02-27T18:39:58.198Z,10.38
2023-02-27T18:42:24.924Z,10.00
2023-02-27T18:44:51.700Z,10.35
2023-02-27T18:47:18.463Z,10.88
2023-02-27T18:49:46.110Z,11.32
2023-02-27T18:52:12.891Z,14.05
2023-02-27T18:54:40.858Z,12.98
2023-02-27T18:57:07.694Z,14.70
2023-02-27T18:59:34.526Z,15.60
2023-02-27T19:02:01.365Z,15.43
2023-02-27T19:04:28.155Z,12.57
2023-02-27T19:06:55.022Z,13.38
2023-02-27T19:09:22.299Z,15.00
2023-02-27T19:11:49.126Z,14.50
2023-02-27T19:14:16.295Z,14.02
2023-02-27T19:16:43.224Z,16.25
2023-02-27T19:19:10.986Z,15.73
2023-02-27T19:21:37.900Z,11.15
2023-02-27T19:24:04.998Z,10.80
2023-02-27T19:26:34.040Z,12.50
2023-02-27T19:29:00.892Z,7.43
2023-02-27T19:31:28.602Z,6.75
2023-02-27T19:33:55.539Z,9.45
2023-02-27T19:36:23.243Z,8.35
2023-02-27T19:38:50.375Z,7.18
2023-02-27T19:41:17.748Z,10.32
2023-02-27T19:43:44.593Z,5.80
2023-02-27T19:46:23.861Z,7.40
2023-02-27T19:48:51.663Z,6.07
2023-02-27T19:51:18.503Z,6.97
2023-02-27T19:53:46.465Z,9.13
2023-02-27T19:56:17.870Z,8.40
2023-02-27T19:58:44.706Z,8.90
2023-02-27T20:01:12.336Z,10.13
2023-02-27T20:03:43.382Z,7.75
2023-02-27T20:06:18.621Z,6.80
2023-02-27T20:08:45.443Z,8.33
2023-02-27T20:11:13.508Z,7.18
2023-02-27T20:13:40.573Z,10.70
2023-02-27T20:16:08.315Z,14.40
2023-02-27T20:18:35.348Z,14.40
2023-02-27T20:21:06.505Z,13.32
2023-02-27T20:23:34.544Z,14.38
2023-02-27T20:26:01.346Z,11.15
2023-02-27T20:28:28.464Z,12.52
2023-02-27T20:30:55.409Z,11.40
2023-02-27T20:33:22.199Z,11.65
2023-02-27T20:35:49.390Z,10.23
2023-02-27T20:38:19.876Z,7.90
2023-02-27T20:40:47.057Z,6.82
2023-02-27T20:43:14.200Z,7.20
2023-02-27T20:45:41.726Z,7.15
2023-02-27T20:48:08.956Z,6.13
2023-02-27T20:50:36.577Z,6.70
2023-02-27T20:53:03.790Z,6.30
2023-02-27T20:55:30.965Z,6.18
2023-02-27T20:57:58.101Z,9.70
2023-02-27T21:00:28.196Z,8.48
2023-02-27T21:02:55.474Z,6.88
2023-02-27T21:05:22.612Z,9.65
2023-02-27T21:07:50.703Z,8.98
2023-02-27T21:10:18.115Z,11.40
2023-02-27T21:12:45.254Z,12.10
2023-02-27T21:15:12.893Z,12.43
2023-02-27T21:17:40.084Z,13.93
2023-02-27T21:20:07.630Z,11.93
2023-02-27T21:22:34.785Z,12.57
2023-02-27T21:25:02.078Z,11.73
2023-02-27T21:27:29.354Z,13.15
2023-02-27T21:29:56.555Z,15.23
2023-02-27T21:32:23.893Z,14.77
2023-02-27T21:34:51.137Z,14.25
2023-02-27T21:37:18.569Z,13.57
2023-02-27T21:39:50.425Z,13.35
2023-02-27T21:42:17.575Z,15.48
2023-02-27T21:44:44.732Z,12.63
2023-02-27T21:47:11.946Z,15.25
2023-02-27T21:49:39.375Z,18.67
2023-02-27T21:52:06.713Z,14.80
2023-02-27T21:54:33.879Z,17.48
2023-02-27T21:57:03.149Z,14.48
2023-02-27T21:59:30.312Z,16.67
2023-02-27T22:01:58.050Z,16.77
2023-02-27T22:04:25.550Z,16.97
2023-02-27T22:06:52.786Z,16.80
2023-02-27T22:09:20.036Z,15.52
2023-02-27T22:11:47.404Z,18.27
2023-02-27T22:14:14.895Z,15.85
2023-02-27T22:16:42.112Z,16.80
2023-02-27T22:19:10.715Z,14.93
2023-02-27T22:21:37.982Z,14.00
2023-02-27T22:24:05.328Z,13.40
2023-02-27T22:26:32.645Z,14.43
2023-02-27T22:28:59.943Z,14.70
2023-02-27T22:31:28.844Z,12.97
2023-02-27T22:33:56.563Z,13.43
2023-02-27T22:36:24.426Z,13.82
2023-02-27T22:38:51.640Z,17.38
2023-02-27T22:41:22.359Z,14.23
2023-02-27T22:43:49.606Z,11.20
2023-02-27T22:46:18.223Z,13.55
2023-02-27T22:48:45.569Z,13.25
2023-02-27T22:51:14.388Z,14.02
2023-02-27T22:53:46.117Z,13.48
2023-02-27T22:56:14.036Z,10.20
2023-02-27T22:58:41.390Z,11.77
2023-02-27T23:01:15.737Z,13.73
2023-02-27T23:03:43.250Z,15.02
2023-02-27T23:06:11.884Z,11.93
2023-02-27T23:08:39.388Z,10.40
2023-02-27T23:11:06.561Z,10.27
2023-02-27T23:13:33.746Z,14.48
2023-02-27T23:16:01.187Z,13.93
2023-02-27T23:18:28.765Z,12.20
2023-02-27T23:20:56.035Z,13.68
2023-02-27T23:23:23.271Z,10.23
2023-02-27T23:25:50.519Z,11.15
2023-02-27T23:28:17.783Z,11.82
2023-02-27T23:30:44.992Z,11.70
2023-02-27T23:33:12.118Z,10.35
2023-02-27T23:35:39.532Z,11.77
2023-02-27T23:38:07.512Z,13.57
2023-02-27T23:40:34.653Z,12.05
2023-02-27T23:43:02.348Z,11.18
2023-02-27T23:45:29.486Z,14.77
2023-02-27T23:47:57.298Z,12.03
2023-02-27T23:50:25.430Z,12.13
2023-02-27T23:52:53.332Z,13.63
2023-02-27T23:55:21.267Z,11.68
2023-02-27T23:57:48.768Z,10.13
